Hlavní strana
METAR-TAF:

METAR-TAF

Letiště :

Växjö, Švédsko

zeměpisná šířka: 56-51N, zeměpisná délka: 014-50E, výška: 199 m

Aktuální stav počasí

Zpráva byla vytvořena před 21 minutami, v 04:50 UTC
Jižní vítr 3 kt
Teplota 10°C
Vlhkost vzduchu 93%
Tlak 1020 hPa
Viditelnost 10 km a více
Žádná oblačnost pod 1500 m, nevyskytují se cumulonimby.

METAR: ESMX 220450Z 19003KT CAVOK 10/09 Q1020

Čas: 07:11 (05:11 UTC)

Předpověď počasí

Zpráva byla vytvořena před 1 hodinou a 41 minutami, v 03:30 UTC
Předpověď platná od 22 v 04 UTC do 22 v 12 UTC
Jihojihozápadní vítr 6 kt
Viditelnost 10 km a více
Žádná oblačnost pod 1500 m, nevyskytují se cumulonimby.

TAF: ESMX 220330Z 2204/2212 20006KT CAVOK

Stav a předpovědi počasí z více než 4 000 letišť (zprávy METAR a TAF).

Červené a žluté tečky na mapě představují dostupné meteorologické stanice.

Když kurzor umístíte na tečku, zobrazí se název stanice.

Pak kliknutím zobrazíte stav a předpověď počasí.

Chcete-li změnit mapu, kliknutím na zelené tlačítko se znaménkem +mapu přiblížíte, kliknutím na zelené tlačítko se znaménkem – mapu oddálíte a kliknutím na zelené šipky přejdete na sousední mapy.


METAR-TAF: